Aérodrome :
LOGIN :

S'inscrire | Disclaimer

   EN    FR    IT 

 










Légende :    VFR   VFR Marginal   IFR   IFR Intensif   IFR Très Intensif
Visi : 
Plafond : 
>= 8 km
>= 3000ft
5 à 8 km
1000 à 3000 ft
1500m à 5 km
500 à 1000 ft
800 à 1500m
200 à 500 ft
< 800m
< 200 ft
Symboles :   Orages  Brouillard  Fortes neiges  Fortes précipitations  Vent > 20 kt
SIGMETs :   Divers  Orages  Givrage  Turbulence  Onde Orograph.  Cendres Volcan.







- Altitude de l'aérodrome : 74 ft
- Code IATA : MRS
- Voir les cartes d'approche


LFML - Marseille / Marignane

DERNIER METAR :
  • 230130Z AUTO 11003KT CAVOK 13/08 Q1019 TEMPO 2500 BR

METARs EXPIRÉS :
  • 230100Z AUTO 08004KT 9999 FEW011 15/08 Q1019 TEMPO 2500 BR
  • 230030Z AUTO 12004KT CAVOK 14/08 Q1019 TEMPO 2500 BR
  • 230000Z AUTO 12004KT CAVOK 13/09 Q1019 TEMPO 2500 BR
  • 222330Z AUTO 00000KT CAVOK 15/09 Q1019 TEMPO 2500 BR
  • 222300Z AUTO 13004KT CAVOK 14/09 Q1019 TEMPO 2500 BR

TAF TAF LFML
Valide du 22 à 21h jusqu'au 24 à 03h UTC


222000Z 2221/2403 VRB05KT CAVOK
PROB40
TEMPO 2300/2307 2500 BR
BECMG 2310/2312 20007KT
BECMG 2318/2321 VRB05KT TX24/2312Z TN13/2303Z
ATIS : +33 4 42 31 15 15
Pas de NOTAMs connus pour ce terrain.



MET'MAP, la Météo Aéronautique d'un coup d'oeil ! - Copyright ORBIFLY Décembre 2007 - Disclaimer

ORBIFLY MET'MAP TEAM :

Programmation & Développement : Alexandra Zaïnal
Conception & Développement : Baudouin d'Aumeries
Co-Programmation & Développement : Marc-Olivier Méhu
Soutien technique & logistique : Manuel Goepfert

Contact : metmap@orbifly.com




SOURCES & CREDITS :

   NOAA